Central Il Rgnl Arpt at Bloomington-Normal Airport
KBMI : now visible

Airfield :











YOU CAN JOIN US ON...

 
LOGIN :

Register | Disclaimer

   EN    FR    IT 

 









Legend :    VFR   Marginal VFR   IFR   Intensive IFR   Very Intensive IFR
Visi :
Ceiling :
>= 8 km
>= 3000ft
5 to 8 km
1000 to 3000 ft
1500m to 5 km
500 to 1000 ft
800 to 1500m
200 to 500 ft
< 800m
< 200 ft
Symbols :   Thunderstorms  Fog  Heavy snow  Heavy precipitations  Wind > 20 kt






- Airport Elevation : 871 ft
- IATA code : BMI


KBMI - Central Il Rgnl Arpt at Bloomington-Normal

CURRENT METAR :
  • 261703Z 34020KT 9SM -SN FEW012 BKN029 OVC037 M03/M05 A3008 RMK AO2 P0000

EXPIRED METARs :
  • 261656Z 34019KT 9SM -SN FEW012 BKN031 OVC037 M03/M05 A3007 RMK AO2 SLP191 P0000 T10281050
  • 261641Z 34020KT 9SM -SN BKN010 BKN029 OVC036 M03/M05 A3007 RMK AO2 P0000
  • 261556Z 35017KT 1 3/4SM -SN BR OVC010 M03/M04 A3007 RMK AO2 PK WND 35027/1539 CIG 007V013 SLP189 P0000 T10331044
  • 261456Z 35018G28KT 1 1/4SM -SN BR BKN010 BKN021 OVC025 M03/M04 A3005 RMK AO2 PK WND 34028/1451 CIG 007V012 SLP182 P0000 60000 T10331044 51006

TAF KBMI
Valid from the 26 at 12:00 until the 27 at 12:00 UTC


261138Z 2612/2712 35014G22KT 2SM -SN BR OVC007
FM261700 34016G24KT P6SM VCSH OVC020
FM262000 34016G24KT P6SM OVC025
FM270200 33015KT P6SM BKN035
FM270600 30009KT P6SM BKN050



MET'MAP, your aeronautical weather chart ! - Copyright ORBIFLY December 2007 - Disclaimer

ORBIFLY MET'MAP TEAM :

Programming & Development : Alexandra Zaïnal
Concept & original design : Baudouin d'Aumeries
Assistance for programming : Marc-Olivier Méhu
Technical & hardware support : Manuel Goepfert

Contact : metmap@orbifly.com




SOURCES & CREDITS :

   NOAA       Earth
Advisory